Challenge de la Province de Liège

Le Jogging Charlemagne à Jupille (10.45 km)

dimanche 18 novembre 2018

Le classement original se trouve sur : http://www.cjpl.eu/challenge/        
CHALLENGE DE LA PROVINCE DE LIEGE
LE JOGGING CHARLEMAGNE - JUPILLE
DISTANCE : 10.48 km
dimanche 18 novembre 2018
 
Place dos NOM EQUIPE Catégorie Pl/cat temps temps/km Vitesse
1 127 CHRISTOPHE MÉMURLIN - SENIORS 1 0:37:53 03:37 16.60
2 3565 PATRICK PHILIPPE JIA VÉT1 1 0:38:12 03:39 16.46
3 3587 WILLY PETER ATLA VÉT4 1 0:38:38 03:41 16.28
4 3632 REMY KAILS RFCL SENIORS 2 0:39:01 03:43 16.12
5 3539 JEAN PIERRE BAUDINET RFCL VÉT2 1 0:40:27 03:52 15.55
6 3544 MANUEL WOYAFFE - SENIORS 3 0:40:33 03:52 15.51
7 186 HERVE DEBATTY - VÉT1 2 0:40:44 03:53 15.44
8 3588 RAF CLERINX ATLA VÉT1 3 0:40:46 03:53 15.43
9 3570 SAMUEL EUSSEN TDCH ESPH 1 0:40:48 03:54 15.41
10 3599 HUGO MATTHYS HERVE ESPH 2 0:41:09 03:56 15.28
11 3564 AMAURY HENNUY - SENIORS 4 0:41:31 03:58 15.15
12 3559 JEROEN SANTERMANS GS RUNNING TEAM VÉT1 4 0:41:44 03:59 15.07
13 14 YVES GARIN JIA VÉT1 5 0:42:06 04:01 14.94
14 175 CHRISTOPHE SCHOLZEN SOMJA RUNNING SENIORS 5 0:42:44 04:05 14.72
15 3563 PIERRE DAUBY - SENIORS 6 0:43:13 04:07 14.55
16 3532 GUILLAUME LEJEUNE HERVE ESPH 3 0:43:27 04:09 14.47
17 181 THIERRY PAQUES RFCL VÉT2 2 0:43:32 04:09 14.45
18 161 BENJAMIN DE HEY HAUTES FAGNES ESPH 4 0:43:49 04:11 14.35
19 3514 SONJA VERNIKOV SKI KELLER KAVLARD & SCHROIFF ESPD 1 0:44:10 04:13 14.24
20 3515 WIKTOR VERNIKOV SKI KELLER KAVLARD & SCHROIFF ESPH 5 0:44:17 04:14 14.20
21 24 JONATHAN JORIS SOMJA RUNNING OLNE SENIORS 7 0:44:19 04:14 14.19
22 19 LUCA MERCIADRI - SENIORS 8 0:44:30 04:15 14.13
23 96 DELPHINE THIRIFAYS RFCL DAMES 1 0:44:58 04:17 13.99
24 68 JEAN-MARIE CHUDYBA JOG'IN'ATTITUDE VÉT2 3 0:44:58 04:17 13.99
25 10 DANIEL DEBRA - VÉT1 6 0:44:58 04:17 13.99
26 3554 JACQUES DELFOSSE JIA VÉT1 7 0:45:03 04:18 13.96
27 63 JEAN-MARC DANIELS RUNNERS BERNEAU VÉT2 4 0:45:08 04:18 13.93
28 3648 CHRISTOPHE LEJEUNE - VÉT1 8 0:45:15 04:19 13.90
29 164 RUDY SIRAULT HUY ATHLETIC CLUB VÉT1 9 0:45:23 04:20 13.86
30 3590 MOURAD IDRAF - VÉT1 10 0:45:37 04:21 13.79
31 3581 KEVIN PEREAUX - SENIORS 9 0:45:40 04:21 13.77
32 16 ETIENNE BUCKINX RFCL VÉT2 5 0:45:58 04:23 13.68
33 3568 JULIEN GAVAGE - SENIORS 10 0:46:06 04:24 13.64
34 210 JEAN-LUC BOVI RFCL VÉT1 11 0:46:09 04:24 13.63
35 3647 ROLAND KERIS - VÉT1 12 0:46:26 04:26 13.54
36 3634 KEVIN RAVIGNA RAVI PERF SENIORS 11 0:46:43 04:27 13.46
37 3602 AMAURY BAILLY FUN GYM XXX   0:47:19 04:31 13.29
38 3637 JEAN DESSOUROUX CH LAVENIR VÉT3 1 0:47:34 04:32 13.22
39 240 FABIAN NIHANT FNJC VÉT2 6 0:47:41 04:33 13.19
40 3658 MICHEL VANNIEUWENHUYSEN TDCH VÉT1 13 0:47:48 04:34 13.16
41 3653 FREDERIC SEVRIN - SENIORS 12 0:47:51 04:34 13.14
42 3518 JIMMY FORTEMPS - SENIORS 13 0:48:04 04:35 13.08
43 3643 VALERY EVRARD SER ATHLE VÉT1 14 0:48:25 04:37 12.99
44 2890 SYLVAIN VAISIERE - ESPH 6 0:48:28 04:37 12.98
45 3600 LAURENT TANS RTS SENIORS 14 0:48:31 04:38 12.96
46 143 MICHEL JEUKENS - VÉT1 15 0:48:31 04:38 12.96
47 3635 LIONEL FLECHET RAVI PERF SENIORS 15 0:48:34 04:38 12.95
48 32 MICHEL RIGO - VÉT1 16 0:48:36 04:38 12.94
49 51 LAURENT KNAPEN JOGIN'ATTITUDE VÉT3 2 0:48:39 04:39 12.93
50 3550 ABDEL EL KALISCH - VÉT2 7 0:48:46 04:39 12.90
51 3616 ERIC PATRIARCA JIA SENIORS 16 0:48:51 04:40 12.87
52 3612 LAURENT MISTIAEN - SENIORS 17 0:48:58 04:40 12.84
53 40 ALBERTO CANALES - VÉT3 3 0:49:00 04:41 12.83
54 74 PATRICK DAMBLON CHALLENGE AVENIR VÉT2 8 0:49:09 04:41 12.79
55 102 GEOFFREY MATAGNE - SENIORS 18 0:49:24 04:43 12.73
56 156 DOMINIQUE FREDERICH HERVE AIN2 1 0:49:44 04:45 12.64
57 3561 BRUZZESE FRACLQCO - XXX   0:50:02 04:46 12.57
58 33 ALAIN DETHIER - VÉT2 9 0:50:04 04:47 12.56
59 3623 THOMAS COP - SENIORS 19 0:50:09 04:47 12.54
60 36 NICOLAS BYNENS JOGGING CLUB DE JUPRELLE VÉT3 4 0:50:16 04:48 12.51
61 3506 MANUEL BOSCOLO JIA VÉT1 17 0:50:18 04:48 12.50
62 57 PASCAL BOLLEN SERAING ATHÉTISME VÉT2 10 0:50:22 04:48 12.49
63 3571 MAXIME LEBRUN - ESPH 7 0:50:41 04:50 12.41
64 107 LAURENT MULLENS - VÉT1 18 0:50:50 04:51 12.37
65 3629 ABDALLAH OUAHID - VÉT2 11 0:50:52 04:51 12.36
66 3655 FRANCIS WATAR COURIR CLAUDIO VÉT1 19 0:50:53 04:51 12.36
67 3562 CHRISTIAN AKKERMANS - VÉT2 12 0:50:57 04:52 12.34
68 3631 ALEX VAN GANS - VÉT2 13 0:50:59 04:52 12.33
69 320 MICHEL BARNABE RDV RUN BEYNE VÉT2 14 0:51:05 04:52 12.31
70 3577 PHILIPPE CARABIN - VÉT3 5 0:51:10 04:53 12.29
71 3552 ALEXANDRE ZAMPIERI - VÉT1 20 0:51:14 04:53 12.27
72 3589 LUCIO PROFETA - SENIORS 20 0:51:21 04:54 12.25
73 3560 LIESBET KEIMES GS RUNNING TEAM AIN1 1 0:51:28 04:55 12.22
74 3542 ALAIN BIKA - VÉT3 6 0:51:30 04:55 12.21
75 3502 VERONIQUE PIRON - DAMES 2 0:51:33 04:55 12.20
76 3557 ANGEL FERNANDEZ - VÉT2 15 0:51:44 04:56 12.16
77 3610 VINCENT BAIVERLIN - SENIORS 21 0:51:50 04:57 12.13
78 225 J LUC LETELLIER - VÉT2 16 0:52:13 04:59 12.04
79 3555 FABRICE DIET JIA VÉT1 21 0:52:26 05:00 11.99
80 70 JOËL DARCIS RDV RUN SENIORS 22 0:52:38 05:01 11.95
81 3501 FABRICE DEMONCEAU - SENIORS 23 0:52:46 05:02 11.92
82 5 RICHARD MATHOT - VÉT3 7 0:52:55 05:03 11.88
83 3659 THOMAS HEINEN - SENIORS 24 0:52:59 05:03 11.87
84 3618 MELVIN LEENAERS - SENIORS 25 0:53:15 05:05 11.81
85 3513 SOPHIE MARION - DAMES 3 0:53:17 05:05 11.80
86 3573 PIERRE VAN CAUWENBERGE - VÉT1 22 0:53:23 05:06 11.78
87 3593 RICHARD DELHOULLE - SENIORS 26 0:53:40 05:07 11.72
88 350 JEAN WEERTS - VÉT1 23 0:53:40 05:07 11.72
89 3508 MARC DEFRAIGNE - SENIORS 27 0:53:46 05:08 11.70
90 98 DIMITRI MANFÉ - SENIORS 28 0:53:52 05:08 11.67
91 3583 JONATHAN DE CECCO - SENIORS 29 0:53:57 05:09 11.66
92 212 ROGER MENNICKEN EYNATTEN VÉT2 17 0:54:01 05:09 11.64
93 3644 MARCEL CUTILLO - VÉT1 24 0:54:05 05:10 11.63
94 3567 JABRINA LECLERCQ - AIN1 2 0:54:14 05:10 11.60
95 3520 MARIE HELENE DELREZ JIA AIN1 3 0:54:34 05:12 11.52
96 23 OLIVIER BURNIAT TOUJOURS ALLURE SENIORS 30 0:54:43 05:13 11.49
97 3537 JOHANNES RESCH - SENIORS 31 0:54:59 05:15 11.44
98 123 FRANCOISE PISCART - AIN1 4 0:55:01 05:15 11.43
99 3657 PATRICK DELARBRE - VÉT1 25 0:55:09 05:16 11.40
100 77 NATHALIE STEIMES SER ATHL AIN1 5 0:55:31 05:18 11.33
101 3575 MICHEL BORGS - VÉT2 18 0:55:32 05:18 11.32
102 174 CLAUDE HERZET - VÉT3 8 0:55:38 05:18 11.30
103 3566 STEVE VIGNERY - SENIORS 32 0:55:45 05:19 11.28
104 3511 ALAIN BOVY OUPEYE ATHLETISME VÉT1 26 0:55:55 05:20 11.25
105 65 PASCAL SAVELBERG ROAD RUNNERS VÉT1 27 0:55:55 05:20 11.25
106 3580 FREDERIC DE CECCO - VÉT1 28 0:55:57 05:20 11.24
107 3521 BRUNO CHRISTIANE - VÉT2 19 0:56:04 05:21 11.22
108 3531 ALAIN SADZOT - VÉT2 20 0:56:20 05:22 11.16
109 87 XUAN-MAI TRAN ACBBS AIN1 6 0:56:30 05:23 11.13
110 3505 ROMAIN LAMBERT - ESPH 8 0:56:43 05:25 11.09
111 3541 AMERIGO OLIVIERI VIA ATTITUDE VÉT3 9 0:56:48 05:25 11.07
112 3662 PATRICK HUMBLET RDV RUN VÉT2 21 0:57:00 05:26 11.03
113 238 SANDRA DELREZ - AIN1 7 0:57:17 05:28 10.98
114 3533 MICHEL SIEBENBOUR LAVENIR VÉT2 22 0:57:18 05:28 10.97
115 3519 CHRISTIAN COUNET JIA VÉT2 23 0:57:49 05:31 10.88
116 3601 GUILLAUME HANNECART FUN GYM SENIORS 33 0:57:54 05:31 10.86
117 3651 THOMAS HEINRICHS - SENIORS 34 0:58:05 05:33 10.83
118 3586 CHRISTOPHER ISER - SENIORS 35 0:58:21 05:34 10.78
119 3527 KARIM MAHAL - SENIORS 36 0:58:33 05:35 10.74
120 66 PIERRE LEFORT A.M.C. VÉT1 29 0:58:34 05:35 10.74
121 3578 MICHAEL DE CECCO - VÉT1 30 0:58:50 05:37 10.69
122 3641 ALAIN NYSSEN ZATAC LIEGE VÉT2 24 0:58:56 05:37 10.67
123 3523 JEAN DEWIL RFCL VÉT2 25 0:58:58 05:38 10.66
124 3607 ANNE CATH DELHASSE FUN GYM DAMES 4 0:59:03 05:38 10.65
125 3603 JACQUES GEEKTS FUN GYM VÉT2 26 0:59:07 05:38 10.64
126 3656 GAELLE CRINE JOGIN ATTITUDE DAMES 5 0:59:08 05:39 10.63
127 316 BERNARD MAROT - VÉT3 10 0:59:29 05:41 10.57
128 3525 FRANCOIS COSSE - VÉT1 31 0:59:58 05:43 10.49
129 3617 LAURENT GARY - SENIORS 37 1:00:28 05:46 10.40
130 3608 ISALINE LEGLISE FUN GYM DAMES 6 1:00:49 05:48 10.34
131 3614 MAXIME WILKIN JIA SENIORS 38 1:00:51 05:48 10.33
132 3558 FABRICE DEVOS DEVOS ATHLETI CLUB VÉT2 27 1:00:59 05:49 10.31
133 3654 DIDIER STEINWEG - VÉT1 32 1:01:01 05:49 10.31
134 3522 ALAIN CHEVALIER - VÉT3 11 1:01:02 05:49 10.30
135 3613 ERIC DELLICOUR - VÉT3 12 1:01:02 05:49 10.30
136 80 BERNARD FERNANDEZ HERRERA SODEXO RUN VÉT1 33 1:01:07 05:50 10.29
137 3582 XAVIER DELNOOZ - SENIORS 39 1:01:15 05:51 10.27
138 3630 LUC CHEVALIER - SENIORS 40 1:01:20 05:51 10.25
139 3621 MAGALI DOPPEE - DAMES 7 1:01:22 05:51 10.25
140 79 DOMINIQUE LELOUP RDV RUN BEYNE-HEUSAY AIN2 2 1:01:32 05:52 10.22
141 3512 LIONEL LOMMA - SENIORS 41 1:01:41 05:53 10.20
142 3569 MARC LECLERCQ ZATAC LIEGE VÉT1 34 1:01:43 05:53 10.19
143 3584 GERARD MARTIN ZATAC LIEGE VÉT2 28 1:01:45 05:53 10.18
144 3646 CHRISTIAN MUYTERS ZATAC LIEGE VÉT3 13 1:01:46 05:54 10.18
145 226 OLIVIER MEMURLIN - SENIORS 42 1:02:05 05:55 10.13
146 58 SEVERINE PIRARD RDV RUN AIN1 8 1:02:23 05:57 10.08
147 3529 HAKIM EL MOKADEM - SENIORS 43 1:02:26 05:57 10.07
148 277 GYULA NELHIEBEL - VÉT2 29 1:03:19 06:02 9.93
149 11 ANNICK BOSSELOIR RDV RUN BEYNE-HEUSAY AIN1 9 1:03:27 06:03 9.91
150 3526 ALAIN HONORE - VÉT1 35 1:03:52 06:06 9.85
151 3591 JULES SOUGNIER RDV RUN BEYNE HEUSAY ESPH 9 1:03:56 06:06 9.84
152 62 ARNAUD PATOUT - SENIORS 44 1:04:07 06:07 9.81
153 3503 JEAN CLAUDE ONSSELS JIA VÉT3 14 1:04:07 06:07 9.81
154 3545 EMILIE SCHEEN RUNNING BREAK DAMES 8 1:04:08 06:07 9.81
155 3652 CARMINI SCATTONE - SENIORS 45 1:04:17 06:08 9.78
156 3517 MARC COLABELLA - VÉT1 36 1:04:20 06:08 9.78
157 3594 RAPHAEL DA CAS - SENIORS 46 1:04:20 06:08 9.78
158 3611 DAVID GRAU - SENIORS 47 1:04:25 06:09 9.76
159 3547 SOPHIE DETHIER - DAMES 9 1:04:26 06:09 9.76
160 3549 YANNICK TASQUIN - SENIORS 48 1:04:27 06:09 9.76
161 3553 MORAD TAMIR - VÉT1 37 1:04:47 06:11 9.71
162 3510 VALERIE NEYBUCH OUPEYE ATHLETISME AIN1 10 1:04:52 06:11 9.69
163 3628 MARIE PIERRE GILLES - AIN1 11 1:04:52 06:11 9.69
164 71 JOELLE SIMONIS RENDEZ VOUS RUN BEYNE HEUSAY AIN1 12 1:04:54 06:12 9.69
165 3624 FABIAN BALDO - VÉT2 30 1:04:55 06:12 9.69
166 3625 RENAUD SCHUTZ - VÉT1 38 1:04:55 06:12 9.69
167 3576 MARIE JENNIFER HENRY RDV RUN BEYNE HEUSAY AIN2 3 1:05:13 06:13 9.64
168 3650 JEAN FRANCOIS CORMAN - VÉT1 39 1:05:49 06:17 9.55
169 3638 CHRISTEL DELARBRE - DAMES 10 1:05:52 06:17 9.55
170 3535 EDOUARD SCHOLTIS BELLAIRE VÉT2 31 1:06:10 06:19 9.50
171 13 FABIAN PANARIELLO AMC MEHAGNE SENIORS 49 1:06:16 06:19 9.49
172 3642 PHILIPPE EVAIN - VÉT2 32 1:06:33 06:21 9.45
173 3639 PASCAL DUSCHENES - SENIORS 50 1:06:41 06:22 9.43
174 113 ELISA PERFETTO AMC MEHAGNE AIN3 1 1:07:09 06:24 9.37
175 3536 JUSTINE CONSTANT RUNNING BREAK JUPILLE DAMES 11 1:08:13 06:31 9.22
176 3598 FABIENNE PIRARD - AIN2 4 1:08:51 06:34 9.13
177 191 HENRI ROBERTI AMC VÉT3 15 1:08:59 06:35 9.12
178 3627 PIERRE BEJKEN - SENIORS 51 1:09:03 06:35 9.11
179 3597 ERIC URBANI - VÉT1 40 1:09:04 06:35 9.11
180 3530 MANON NAVEZ - DAMES 12 1:09:05 06:35 9.10
181 3500 JOSEPHINE LEONARDI PROF INDJ AIN1 13 1:09:22 06:37 9.07
182 3661 SEBASTIEN DELATTRE - SENIORS 52 1:09:35 06:38 9.04
183 3660 GREGOR SOTREZ - SENIORS 53 1:09:35 06:38 9.04
184 3595 MIA VALENTIN ZATAC LIEGE AIN2 5 1:09:47 06:39 9.01
185 3585 MICHELE NYSSEN ZATAC LIEGE AIN2 6 1:09:48 06:40 9.01
186 3538 ISABELLE DELHALLE ZATAC LIEGE AIN2 7 1:09:50 06:40 9.01
187 106 SYLVIE MERCIER RDV RUN BEYNE HEUSAY AIN1 14 1:10:00 06:41 8.98
188 3574 SOPHIE DEMOULIN RDV RUN BEYNE HEUSAY AIN1 15 1:10:00 06:41 8.98
189 3592 CELINE HOUCHARD - DAMES 13 1:10:07 06:41 8.97
190 3507 HARRY HAMERS T R VICHT VÉT3 16 1:10:28 06:43 8.92
191 50 CHRISTINE VAN LAAR - AIN2 8 1:10:51 06:46 8.88
192 3622 VIRGINIE DOPPEE - DAMES 14 1:11:27 06:49 8.80
193 3640 NICOLAS HERBILLON - SENIORS 54 1:11:28 06:49 8.80
194 3596 MARC PECHEUX - VÉT2 33 1:11:37 06:50 8.78
195 2916 LAURENCE THEWISSEN JCH AIN1 16 1:12:14 06:54 8.71
196 56 JEAN-CLAUDE ODEURS LES COREUS D'AWANS VÉT3 17 1:15:43 07:13 8.31
197 3551 CELINE MUNOS RUN IN LIEGE AIN1 17 1:15:56 07:15 8.28
198 72 DOMINIQUE NIJS JOGGING ATTITUDE AIN3 2 1:15:56 07:15 8.28